| time (UTC) | temp F | wind direction | speed MPH | gust MPH | rain 1hr in | rain 24hr in | rain mn in | humidity % | barometer mb |
| 20260902220404 | 98 | 164 | 2.0 | 9.0 | 0.00 | 0.06 | 0.06 | 47 | 1009.5 |
| 20260902215328 | 98 | 163 | 4.0 | 8.0 | 0.00 | 0.06 | 0.06 | 45 | 1009.5 |
| 20260902214333 | 98 | 159 | 2.0 | 12.0 | 0.00 | 0.06 | 0.06 | 45 | 1009.6 |
| 20260902213344 | 98 | 154 | 2.0 | 8.0 | 0.00 | 0.06 | 0.06 | 45 | 1009.6 |
| 20260902212351 | 99 | 168 | 3.0 | 10.0 | 0.00 | 0.06 | 0.06 | 44 | 1009.7 |
| 20260902211326 | 99 | 145 | 3.0 | 8.0 | 0.00 | 0.06 | 0.06 | 44 | 1009.7 |
| 20260902210335 | 98 | 211 | 2.0 | 7.0 | 0.00 | 0.06 | 0.06 | 45 | 1009.8 |
| 20260902205328 | 98 | 192 | 5.0 | 10.0 | 0.00 | 0.06 | 0.06 | 44 | 1009.9 |
| 20260902204331 | 98 | 126 | 3.0 | 12.0 | 0.00 | 0.06 | 0.06 | 44 | 1009.9 |
| 20260902203337 | 98 | 203 | 4.0 | 10.0 | 0.00 | 0.06 | 0.06 | 45 | 1010.0 |
| 20260902202341 | 97 | 203 | 1.0 | 6.0 | 0.00 | 0.06 | 0.06 | 47 | 1010.0 |
| 20260902201326 | 96 | 149 | 3.0 | 10.0 | 0.00 | 0.06 | 0.06 | 46 | 1010.2 |
| 20260902200334 | 97 | 160 | 4.0 | 7.0 | 0.00 | 0.06 | 0.06 | 47 | 1010.2 |
| 20260902195347 | 96 | 296 | 4.0 | 7.0 | 0.00 | 0.06 | 0.06 | 46 | 1010.3 |
| 20260902194400 | 96 | 240 | 5.0 | 7.0 | 0.00 | 0.06 | 0.06 | 45 | 1010.3 |
| 20260902193327 | 95 | 119 | 2.0 | 8.0 | 0.00 | 0.06 | 0.06 | 49 | 1010.5 |
| 20260902192354 | 94 | 165 | 2.0 | 6.0 | 0.00 | 0.06 | 0.06 | 49 | 1010.6 |
| 20260902191335 | 94 | 143 | 2.0 | 4.0 | 0.00 | 0.06 | 0.06 | 52 | 1010.5 |
| 20260902190345 | 94 | 149 | 2.0 | 4.0 | 0.00 | 0.06 | 0.06 | 49 | 1010.7 |
| 20260902185336 | 94 | 232 | 1.0 | 8.0 | 0.00 | 0.06 | 0.06 | 50 | 1010.8 |
| 20260902184341 | 92 | 289 | 2.0 | 7.0 | 0.00 | 0.06 | 0.06 | 50 | 1010.9 |
| 20260902183333 | 92 | 223 | 3.0 | 7.0 | 0.00 | 0.06 | 0.06 | 50 | 1011.0 |
| 20260902182327 | 92 | 183 | 2.0 | 8.0 | 0.00 | 0.06 | 0.06 | 51 | 1011.1 |
| 20260902181330 | 92 | 82 | 4.0 | 8.0 | 0.00 | 0.06 | 0.06 | 49 | 1011.1 |
| 20260902180336 | 91 | 150 | 4.0 | 9.0 | 0.00 | 0.06 | 0.06 | 51 | 1011.3 |
| 20260902175330 | 90 | 45 | 0.0 | 7.0 | 0.00 | 0.06 | 0.06 | 55 | 1011.4 |
| 20260902174359 | 89 | 147 | 2.0 | 8.0 | 0.00 | 0.06 | 0.06 | 53 | 1011.5 |
| 20260902173331 | 89 | 140 | 2.0 | 8.0 | 0.00 | 0.06 | 0.06 | 53 | 1011.6 |
| 20260902172327 | 90 | 181 | 2.0 | 8.0 | 0.00 | 0.06 | 0.06 | 52 | 1011.8 |
| 20260902171348 | 90 | 296 | 2.0 | 7.0 | 0.00 | 0.06 | 0.06 | 52 | 1011.8 |
| 20260902170332 | 89 | 218 | 3.0 | 8.0 | 0.00 | 0.06 | 0.06 | 52 | 1011.8 |
| 20260902165342 | 88 | 261 | 2.0 | 7.0 | 0.00 | 0.06 | 0.06 | 55 | 1011.8 |
| 20260902164354 | 88 | 170 | 2.0 | 8.0 | 0.00 | 0.06 | 0.06 | 54 | 1011.8 |
| 20260902163324 | 88 | 145 | 4.0 | 8.0 | 0.00 | 0.06 | 0.06 | 54 | 1011.7 |
| 20260902162338 | 88 | 162 | 2.0 | 9.0 | 0.00 | 0.06 | 0.06 | 55 | 1011.8 |
| 20260902161336 | 87 | 140 | 1.0 | 6.0 | 0.00 | 0.06 | 0.06 | 54 | 1011.7 |
| 20260902160327 | 87 | 155 | 2.0 | 5.0 | 0.00 | 0.06 | 0.06 | 55 | 1011.8 |
| 20260902155358 | 86 | 145 | 3.0 | 7.0 | 0.00 | 0.06 | 0.06 | 56 | 1011.7 |
| 20260902154343 | 84 | 192 | 1.0 | 5.0 | 0.00 | 0.06 | 0.06 | 63 | 1011.8 |
| 20260902153333 | 82 | 163 | 0.0 | 3.0 | 0.00 | 0.06 | 0.06 | 66 | 1011.7 |
| 20260902152330 | 82 | 168 | 0.0 | 3.0 | 0.00 | 0.06 | 0.06 | 68 | 1011.8 |
| 20260902151338 | 81 | 254 | 0.0 | 1.0 | 0.00 | 0.06 | 0.06 | 70 | 1011.8 |
| 20260902150348 | 80 | 183 | 1.0 | 2.0 | 0.01 | 0.06 | 0.06 | 71 | 1011.9 |
| 20260902145349 | 77 | 168 | 0.0 | 0.0 | 0.06 | 0.06 | 0.06 | 77 | 1011.7 |
| 20260902144347 | 76 | 223 | 0.0 | 0.0 | 0.06 | 0.06 | 0.06 | 78 | 1011.7 |
| 20260902143325 | 75 | 246 | 0.0 | 0.0 | 0.06 | 0.06 | 0.06 | 78 | 1011.8 |
| 20260902142337 | 75 | 240 | 0.0 | 0.0 | 0.06 | 0.06 | 0.06 | 77 | 1011.8 |
| 20260902141400 | 76 | 165 | 0.0 | 0.0 | 0.06 | 0.06 | 0.06 | 74 | 1011.5 |
| 20260902140327 | 78 | 171 | 0.0 | 2.0 | 0.03 | 0.03 | 0.03 | 70 | 1012.2 |
| 20260902135401 | 79 | 157 | 0.0 | 1.0 | 0.00 | 0.00 | 0.00 | 67 | 1012.1 |
| 20260902134330 | 79 | 199 | 0.0 | 2.0 | 0.00 | 0.00 | 0.00 | 66 | 1011.9 |
| 20260902133412 | 79 | 152 | 0.0 | 1.0 | 0.00 | 0.00 | 0.00 | 67 | 1012.1 |
| 20260902132333 | 78 | 178 | 0.0 | 2.0 | 0.00 | 0.00 | 0.00 | 68 | 1012.2 |
| 20260902131337 | 76 | 243 | 0.0 | 0.0 | 0.00 | 0.00 | 0.00 | 70 | 1012.2 |
| 20260902130347 | 75 | 289 | 0.0 | 0.0 | 0.00 | 0.00 | 0.00 | 72 | 1012.3 |
| 20260902125332 | 75 | 289 | 0.0 | 0.0 | 0.00 | 0.00 | 0.00 | 73 | 1012.3 |
| 20260902124341 | 74 | 289 | 0.0 | 0.0 | 0.00 | 0.00 | 0.00 | 72 | 1012.2 |
| 20260902123334 | 74 | 289 | 0.0 | 0.0 | 0.00 | 0.00 | 0.00 | 73 | 1012.1 |
| 20260902122331 | 73 | 289 | 0.0 | 0.0 | 0.00 | 0.00 | 0.00 | 73 | 1012.2 |
| 20260902121338 | 73 | 289 | 0.0 | 0.0 | 0.00 | 0.00 | 0.00 | 73 | 1012.0 |
| 20260902120347 | 73 | 289 | 0.0 | 0.0 | 0.00 | 0.00 | 0.00 | 73 | 1011.8 |
| 20260902115325 | 73 | 289 | 0.0 | 0.0 | 0.00 | 0.00 | 0.00 | 73 | 1011.8 |
| 20260902114333 | 73 | 289 | 0.0 | 0.0 | 0.00 | 0.00 | 0.00 | 72 | 1011.8 |
| 20260902113342 | 73 | 289 | 0.0 | 0.0 | 0.00 | 0.00 | 0.00 | 72 | 1011.8 |
| 20260902112328 | 73 | 289 | 0.0 | 0.0 | 0.00 | 0.00 | 0.00 | 72 | 1011.8 |
| 20260902111335 | 73 | 288 | 0.0 | 0.0 | 0.00 | 0.00 | 0.00 | 72 | 1011.8 |
| 20260902110346 | 74 | 288 | 0.0 | 0.0 | 0.00 | 0.00 | 0.00 | 72 | 1011.8 |
| 20260902105353 | 74 | 288 | 0.0 | 0.0 | 0.00 | 0.00 | 0.00 | 71 | 1011.7 |
| 20260902104339 | 74 | 288 | 0.0 | 0.0 | 0.00 | 0.00 | 0.00 | 70 | 1011.6 |
| 20260902103329 | 75 | 288 | 0.0 | 0.0 | 0.00 | 0.00 | 0.00 | 69 | 1011.8 |
| 20260902102339 | 75 | 288 | 0.0 | 0.0 | 0.00 | 0.00 | 0.00 | 69 | 1011.8 |
| 20260902101341 | 75 | 288 | 0.0 | 0.0 | 0.00 | 0.00 | 0.00 | 68 | 1012.0 |
| 20260902100329 | 76 | 288 | 0.0 | 0.0 | 0.00 | 0.00 | 0.00 | 67 | 1012.0 |
| 20260902095341 | 76 | 288 | 0.0 | 0.0 | 0.00 | 0.00 | 0.00 | 67 | 1012.0 |
| 20260902094359 | 77 | 288 | 0.0 | 0.0 | 0.00 | 0.00 | 0.00 | 65 | 1012.1 |
| 20260902093349 | 77 | 309 | 0.0 | 0.0 | 0.00 | 0.00 | 0.00 | 67 | 1012.2 |
| 20260902092334 | 77 | 327 | 0.0 | 0.0 | 0.00 | 0.00 | 0.00 | 66 | 1012.1 |
| 20260902091335 | 78 | 327 | 0.0 | 0.0 | 0.00 | 0.00 | 0.00 | 64 | 1012.2 |
| 20260902090325 | 78 | 327 | 0.0 | 4.0 | 0.00 | 0.00 | 0.00 | 64 | 1012.2 |
| 20260902085335 | 78 | 236 | 0.0 | 3.0 | 0.00 | 0.00 | 0.00 | 63 | 1012.0 |
| 20260902084359 | 78 | 251 | 1.0 | 3.0 | 0.00 | 0.00 | 0.00 | 65 | 1012.1 |
| 20260902083331 | 78 | 2 | 0.0 | 4.0 | 0.00 | 0.00 | 0.00 | 66 | 1012.3 |
| 20260902082344 | 78 | 5 | 1.0 | 3.0 | 0.00 | 0.00 | 0.00 | 66 | 1012.2 |
| 20260902081325 | 77 | 8 | 2.0 | 4.0 | 0.00 | 0.00 | 0.00 | 67 | 1012.3 |
| 20260902080334 | 76 | 157 | 0.0 | 0.0 | 0.00 | 0.00 | 0.00 | 68 | 1011.9 |
| 20260902075324 | 76 | 157 | 0.0 | 0.0 | 0.00 | 0.00 | 0.00 | 67 | 1011.5 |
| 20260902074328 | 77 | 157 | 0.0 | 0.0 | 0.00 | 0.00 | 0.00 | 65 | 1011.5 |
| 20260902073335 | 78 | 157 | 0.0 | 1.0 | 0.00 | 0.00 | 0.00 | 64 | 1011.4 |
| 20260902072323 | 78 | 133 | 0.0 | 2.0 | 0.00 | 0.00 | 0.00 | 64 | 1011.4 |
| 20260902071324 | 77 | 148 | 0.0 | 0.0 | 0.00 | 0.00 | 0.00 | 65 | 1011.4 |
| 20260902070333 | 78 | 148 | 0.0 | 0.0 | 0.00 | 0.00 | 0.00 | 65 | 1011.4 |
| 20260902065327 | 79 | 148 | 0.0 | 0.0 | 0.00 | 0.00 | 0.00 | 63 | 1011.4 |
| 20260902064333 | 80 | 220 | 0.0 | 1.0 | 0.00 | 0.00 | 0.00 | 62 | 1011.4 |
| 20260902063324 | 80 | 152 | 0.0 | 2.0 | 0.00 | 0.00 | 0.00 | 61 | 1011.4 |
| 20260902062337 | 80 | 138 | 1.0 | 4.0 | 0.00 | 0.00 | 0.00 | 60 | 1011.2 |
| 20260902061354 | 81 | 173 | 1.0 | 4.0 | 0.00 | 0.00 | 0.00 | 60 | 1011.1 |
| 20260902060344 | 81 | 230 | 1.0 | 3.0 | 0.00 | 0.00 | 0.00 | 60 | 1011.0 |
| 20260902055328 | 81 | 115 | 1.0 | 3.0 | 0.00 | 0.00 | 0.00 | 60 | 1011.0 |
| 20260902054352 | 82 | 202 | 0.0 | 3.0 | 0.00 | 0.00 | 0.00 | 59 | 1011.0 |
| 20260902053337 | 82 | 166 | 0.0 | 5.0 | 0.00 | 0.00 | 0.00 | 59 | 1011.0 |
| 20260902052326 | 82 | 160 | 1.0 | 3.0 | 0.00 | 0.00 | 0.00 | 58 | 1011.0 |
| 20260902051349 | 83 | 187 | 1.0 | 3.0 | 0.00 | 0.00 | 0.00 | 58 | 1011.1 |
| 20260902050337 | 83 | 240 | 1.0 | 4.0 | 0.00 | 0.00 | 0.00 | 57 | 1011.1 |
| 20260902045331 | 83 | 162 | 1.0 | 3.0 | 0.00 | 0.00 | 0.00 | 57 | 1011.1 |
| 20260902044339 | 84 | 221 | 0.0 | 5.0 | 0.00 | 0.00 | 0.00 | 57 | 1011.2 |
| 20260902043345 | 84 | 249 | 0.0 | 3.0 | 0.00 | 0.00 | 0.00 | 57 | 1011.2 |
| 20260902042336 | 84 | 200 | 2.0 | 6.0 | 0.00 | 0.00 | 0.00 | 58 | 1011.1 |
| 20260902041340 | 83 | 121 | 1.0 | 4.0 | 0.00 | 0.00 | 0.00 | 59 | 1011.2 |
| 20260902040326 | 83 | 221 | 0.0 | 3.0 | 0.00 | 0.00 | 0.00 | 60 | 1011.3 |
| 20260902035341 | 83 | 159 | 0.0 | 0.0 | 0.00 | 0.00 | 0.00 | 61 | 1011.3 |
| 20260902034325 | 83 | 191 | 0.0 | 0.0 | 0.00 | 0.00 | 0.00 | 62 | 1011.3 |
| 20260902033351 | 84 | 165 | 0.0 | 0.0 | 0.00 | 0.00 | 0.00 | 62 | 1011.3 |
| 20260902032351 | 84 | 151 | 0.0 | 0.0 | 0.00 | 0.00 | 0.00 | 62 | 1011.2 |
| 20260902031332 | 84 | 172 | 0.0 | 0.0 | 0.00 | 0.00 | 0.00 | 62 | 1011.2 |
| 20260902030323 | 85 | 162 | 0.0 | 1.0 | 0.00 | 0.00 | 0.00 | 61 | 1011.1 |
| 20260902025328 | 85 | 244 | 0.0 | 2.0 | 0.00 | 0.00 | 0.00 | 61 | 1011.1 |
| 20260902024335 | 85 | 126 | 0.0 | 0.0 | 0.00 | 0.00 | 0.00 | 61 | 1010.9 |
| 20260902023326 | 85 | 164 | 0.0 | 2.0 | 0.00 | 0.00 | 0.00 | 61 | 1010.8 |
| 20260902022338 | 86 | 176 | 0.0 | 0.0 | 0.00 | 0.00 | 0.00 | 61 | 1010.7 |
| 20260902021324 | 86 | 85 | 0.0 | 1.0 | 0.00 | 0.00 | 0.00 | 60 | 1010.4 |
| 20260902020339 | 87 | 176 | 0.0 | 0.0 | 0.00 | 0.00 | 0.00 | 60 | 1010.4 |
| 20260902015324 | 87 | 177 | 0.0 | 1.0 | 0.00 | 0.00 | 0.00 | 59 | 1010.4 |
| 20260902014329 | 88 | 225 | 0.0 | 0.0 | 0.00 | 0.00 | 0.00 | 58 | 1010.2 |
| 20260902013335 | 89 | 183 | 0.0 | 2.0 | 0.00 | 0.00 | 0.00 | 57 | 1010.0 |
| 20260902012402 | 89 | 182 | 0.0 | 2.0 | 0.00 | 0.00 | 0.00 | 56 | 1009.9 |
| 20260902011331 | 89 | 221 | 0.0 | 1.0 | 0.00 | 0.00 | 0.00 | 56 | 1009.9 |
| 20260902010344 | 90 | 154 | 0.0 | 2.0 | 0.00 | 0.00 | 0.00 | 56 | 1009.9 |
| 20260902005326 | 90 | 179 | 0.0 | 0.0 | 0.00 | 0.00 | 0.00 | 56 | 1009.8 |
| 20260902004344 | 91 | 166 | 0.0 | 1.0 | 0.00 | 0.00 | 0.00 | 55 | 1009.8 |
| 20260902003325 | 92 | 135 | 0.0 | 1.0 | 0.00 | 0.00 | 0.00 | 53 | 1009.8 |
| 20260902002337 | 93 | 142 | 0.0 | 1.0 | 0.00 | 0.00 | 0.00 | 51 | 1009.8 |
| 20260902001341 | 94 | 157 | 0.0 | 1.0 | 0.00 | 0.00 | 0.00 | 50 | 1009.8 |
| 20260902000407 | 95 | 222 | 0.0 | 3.0 | 0.00 | 0.00 | 0.00 | 48 | 1009.9 |
| 20260901235329 | 97 | 169 | 2.0 | 5.0 | 0.00 | 0.00 | 0.00 | 46 | 1010.0 |
| 20260901234334 | 98 | 169 | 2.0 | 6.0 | 0.00 | 0.00 | 0.00 | 45 | 1010.1 |
| 20260901233343 | 98 | 152 | 1.0 | 3.0 | 0.00 | 0.00 | 0.00 | 45 | 1010.2 |
| 20260901232330 | 98 | 157 | 1.0 | 4.0 | 0.00 | 0.00 | 0.00 | 47 | 1010.2 |
| 20260901231339 | 97 | 150 | 2.0 | 6.0 | 0.00 | 0.00 | 0.00 | 46 | 1010.1 |
| 20260901230329 | 98 | 156 | 2.0 | 7.0 | 0.00 | 0.00 | 0.00 | 46 | 1010.2 |
| 20260901225359 | 98 | 149 | 3.0 | 8.0 | 0.00 | 0.00 | 0.00 | 46 | 1010.4 |
| 20260901224339 | 98 | 144 | 3.0 | 6.0 | 0.00 | 0.00 | 0.00 | 45 | 1010.5 |
| 20260901223345 | 98 | 281 | 2.0 | 7.0 | 0.00 | 0.00 | 0.00 | 45 | 1010.4 |
| 20260901222329 | 98 | 149 | 3.0 | 8.0 | 0.00 | 0.00 | 0.00 | 45 | 1010.4 |
| 20260901221334 | 98 | 225 | 2.0 | 8.0 | 0.00 | 0.00 | 0.00 | 47 | 1010.5 |